sensor_id;sensor_type;location;lat;lon;timestamp;temperature;humidity
71396;DHT22;59888;55.814;37.132;2022-11-11T00:01:43;9.45;73.67
71396;DHT22;59888;55.814;37.132;2022-11-11T00:04:28;9.45;73.35
71396;DHT22;59888;55.814;37.132;2022-11-11T00:07:12;9.42;73.67
71396;DHT22;59888;55.814;37.132;2022-11-11T00:09:57;9.42;73.83
71396;DHT22;59888;55.814;37.132;2022-11-11T00:12:41;9.42;73.61
71396;DHT22;59888;55.814;37.132;2022-11-11T00:15:27;9.41;73.53
71396;DHT22;59888;55.814;37.132;2022-11-11T00:18:11;9.41;73.70
71396;DHT22;59888;55.814;37.132;2022-11-11T00:21:14;9.41;73.78
71396;DHT22;59888;55.814;37.132;2022-11-11T00:24:24;9.39;74.24
71396;DHT22;59888;55.814;37.132;2022-11-11T00:27:30;9.39;74.25
71396;DHT22;59888;55.814;37.132;2022-11-11T00:30:14;9.46;74.16
71396;DHT22;59888;55.814;37.132;2022-11-11T00:32:59;9.50;73.93
71396;DHT22;59888;55.814;37.132;2022-11-11T00:35:43;9.54;73.94
71396;DHT22;59888;55.814;37.132;2022-11-11T00:38:45;9.55;73.58
71396;DHT22;59888;55.814;37.132;2022-11-11T00:41:30;9.54;73.67
71396;DHT22;59888;55.814;37.132;2022-11-11T00:44:15;9.55;73.71
71396;DHT22;59888;55.814;37.132;2022-11-11T00:46:59;9.59;73.66
71396;DHT22;59888;55.814;37.132;2022-11-11T00:50:21;9.57;73.54
71396;DHT22;59888;55.814;37.132;2022-11-11T00:53:30;9.52;73.82
71396;DHT22;59888;55.814;37.132;2022-11-11T00:56:19;9.53;74.09
71396;DHT22;59888;55.814;37.132;2022-11-11T00:59:05;9.54;73.66
71396;DHT22;59888;55.814;37.132;2022-11-11T01:01:50;9.50;74.02
71396;DHT22;59888;55.814;37.132;2022-11-11T01:04:35;9.47;74.42
71396;DHT22;59888;55.814;37.132;2022-11-11T01:07:19;9.48;73.95
71396;DHT22;59888;55.814;37.132;2022-11-11T01:10:04;9.49;73.84
71396;DHT22;59888;55.814;37.132;2022-11-11T01:12:53;9.49;73.86
71396;DHT22;59888;55.814;37.132;2022-11-11T01:16:00;9.46;74.38
71396;DHT22;59888;55.814;37.132;2022-11-11T01:18:46;9.44;74.14
71396;DHT22;59888;55.814;37.132;2022-11-11T01:21:31;9.48;74.24
71396;DHT22;59888;55.814;37.132;2022-11-11T01:24:15;9.48;74.44
71396;DHT22;59888;55.814;37.132;2022-11-11T01:26:59;9.48;74.23
71396;DHT22;59888;55.814;37.132;2022-11-11T01:29:43;9.42;74.37
71396;DHT22;59888;55.814;37.132;2022-11-11T01:32:28;9.44;74.47
71396;DHT22;59888;55.814;37.132;2022-11-11T01:35:13;9.45;74.46
71396;DHT22;59888;55.814;37.132;2022-11-11T01:37:57;9.45;74.50
71396;DHT22;59888;55.814;37.132;2022-11-11T01:40:43;9.42;74.50
71396;DHT22;59888;55.814;37.132;2022-11-11T01:43:27;9.40;74.77
71396;DHT22;59888;55.814;37.132;2022-11-11T01:46:20;9.42;75.18
71396;DHT22;59888;55.814;37.132;2022-11-11T01:49:26;9.47;74.76
71396;DHT22;59888;55.814;37.132;2022-11-11T01:55:17;9.50;74.59
71396;DHT22;59888;55.814;37.132;2022-11-11T01:58:03;9.49;74.47
71396;DHT22;59888;55.814;37.132;2022-11-11T02:00:50;9.50;74.22
71396;DHT22;59888;55.814;37.132;2022-11-11T02:03:34;9.50;74.55
71396;DHT22;59888;55.814;37.132;2022-11-11T02:06:20;9.49;74.81
71396;DHT22;59888;55.814;37.132;2022-11-11T02:09:04;9.51;74.58
71396;DHT22;59888;55.814;37.132;2022-11-11T02:11:48;9.52;74.70
71396;DHT22;59888;55.814;37.132;2022-11-11T02:14:53;9.55;74.66
71396;DHT22;59888;55.814;37.132;2022-11-11T02:17:38;9.55;74.47
71396;DHT22;59888;55.814;37.132;2022-11-11T02:20:23;9.56;74.76
71396;DHT22;59888;55.814;37.132;2022-11-11T02:26:01;9.49;74.80
71396;DHT22;59888;55.814;37.132;2022-11-11T02:28:47;9.52;74.89
71396;DHT22;59888;55.814;37.132;2022-11-11T02:31:31;9.53;74.53
71396;DHT22;59888;55.814;37.132;2022-11-11T02:34:15;9.56;74.72
71396;DHT22;59888;55.814;37.132;2022-11-11T02:37:00;9.62;74.83
71396;DHT22;59888;55.814;37.132;2022-11-11T02:39:46;9.59;74.51
71396;DHT22;59888;55.814;37.132;2022-11-11T02:42:32;9.54;74.58
71396;DHT22;59888;55.814;37.132;2022-11-11T02:45:17;9.54;74.63
71396;DHT22;59888;55.814;37.132;2022-11-11T02:48:02;9.56;74.57
71396;DHT22;59888;55.814;37.132;2022-11-11T02:50:46;9.56;74.22
71396;DHT22;59888;55.814;37.132;2022-11-11T02:53:32;9.53;74.56
71396;DHT22;59888;55.814;37.132;2022-11-11T02:56:16;9.57;74.78
71396;DHT22;59888;55.814;37.132;2022-11-11T02:59:20;9.54;74.60
71396;DHT22;59888;55.814;37.132;2022-11-11T03:02:07;9.55;74.51
71396;DHT22;59888;55.814;37.132;2022-11-11T03:04:52;9.50;74.92
71396;DHT22;59888;55.814;37.132;2022-11-11T03:07:37;9.48;75.06
71396;DHT22;59888;55.814;37.132;2022-11-11T03:10:21;9.51;74.97
71396;DHT22;59888;55.814;37.132;2022-11-11T03:13:11;9.53;75.00
71396;DHT22;59888;55.814;37.132;2022-11-11T03:15:55;9.52;74.54
71396;DHT22;59888;55.814;37.132;2022-11-11T03:18:39;9.47;75.07
71396;DHT22;59888;55.814;37.132;2022-11-11T03:21:23;9.47;74.81
71396;DHT22;59888;55.814;37.132;2022-11-11T03:24:07;9.46;74.86
71396;DHT22;59888;55.814;37.132;2022-11-11T03:26:51;9.44;75.03
71396;DHT22;59888;55.814;37.132;2022-11-11T03:29:36;9.41;75.23
71396;DHT22;59888;55.814;37.132;2022-11-11T03:32:30;9.46;75.04
71396;DHT22;59888;55.814;37.132;2022-11-11T03:35:14;9.47;74.81
71396;DHT22;59888;55.814;37.132;2022-11-11T03:37:58;9.49;74.96
71396;DHT22;59888;55.814;37.132;2022-11-11T03:41:21;9.49;74.93
71396;DHT22;59888;55.814;37.132;2022-11-11T03:44:05;9.50;74.97
71396;DHT22;59888;55.814;37.132;2022-11-11T03:46:49;9.47;74.72
71396;DHT22;59888;55.814;37.132;2022-11-11T03:49:33;9.46;75.05
71396;DHT22;59888;55.814;37.132;2022-11-11T03:52:18;9.42;75.01
71396;DHT22;59888;55.814;37.132;2022-11-11T03:55:02;9.44;74.97
71396;DHT22;59888;55.814;37.132;2022-11-11T03:57:47;9.42;75.15
71396;DHT22;59888;55.814;37.132;2022-11-11T04:00:31;9.42;75.34
71396;DHT22;59888;55.814;37.132;2022-11-11T04:03:20;9.45;75.07
71396;DHT22;59888;55.814;37.132;2022-11-11T04:06:23;9.41;74.98
71396;DHT22;59888;55.814;37.132;2022-11-11T04:09:39;9.41;75.47
71396;DHT22;59888;55.814;37.132;2022-11-11T04:12:43;9.41;75.16
71396;DHT22;59888;55.814;37.132;2022-11-11T04:15:45;9.38;75.43
71396;DHT22;59888;55.814;37.132;2022-11-11T04:18:48;9.36;75.49
71396;DHT22;59888;55.814;37.132;2022-11-11T04:21:51;9.38;75.50
71396;DHT22;59888;55.814;37.132;2022-11-11T04:24:36;9.39;75.44
71396;DHT22;59888;55.814;37.132;2022-11-11T04:27:38;9.40;75.79
71396;DHT22;59888;55.814;37.132;2022-11-11T04:30:23;9.41;75.71
71396;DHT22;59888;55.814;37.132;2022-11-11T04:33:08;9.42;75.49
71396;DHT22;59888;55.814;37.132;2022-11-11T04:35:51;9.44;75.25
71396;DHT22;59888;55.814;37.132;2022-11-11T04:38:36;9.39;75.90
71396;DHT22;59888;55.814;37.132;2022-11-11T04:41:39;9.40;75.64
71396;DHT22;59888;55.814;37.132;2022-11-11T04:44:23;9.39;75.67
71396;DHT22;59888;55.814;37.132;2022-11-11T04:47:27;9.37;75.95
71396;DHT22;59888;55.814;37.132;2022-11-11T04:50:11;9.39;75.53
71396;DHT22;59888;55.814;37.132;2022-11-11T04:53:01;9.39;75.60
71396;DHT22;59888;55.814;37.132;2022-11-11T04:55:45;9.44;75.43
71396;DHT22;59888;55.814;37.132;2022-11-11T04:58:48;9.45;75.59
71396;DHT22;59888;55.814;37.132;2022-11-11T05:01:52;9.48;75.54
71396;DHT22;59888;55.814;37.132;2022-11-11T05:04:55;9.49;75.50
71396;DHT22;59888;55.814;37.132;2022-11-11T05:07:39;9.49;75.47
71396;DHT22;59888;55.814;37.132;2022-11-11T05:10:44;9.53;75.49
71396;DHT22;59888;55.814;37.132;2022-11-11T05:13:28;9.50;75.52
71396;DHT22;59888;55.814;37.132;2022-11-11T05:16:33;9.48;75.47
71396;DHT22;59888;55.814;37.132;2022-11-11T05:19:38;9.46;75.54
71396;DHT22;59888;55.814;37.132;2022-11-11T05:22:41;9.44;75.57
71396;DHT22;59888;55.814;37.132;2022-11-11T05:25:25;9.41;75.63
71396;DHT22;59888;55.814;37.132;2022-11-11T05:28:10;9.44;75.83
71396;DHT22;59888;55.814;37.132;2022-11-11T05:30:54;9.48;75.77
71396;DHT22;59888;55.814;37.132;2022-11-11T05:33:38;9.51;75.79
71396;DHT22;59888;55.814;37.132;2022-11-11T05:36:23;9.53;75.82
71396;DHT22;59888;55.814;37.132;2022-11-11T05:39:07;9.55;75.57
71396;DHT22;59888;55.814;37.132;2022-11-11T05:41:51;9.56;75.48
71396;DHT22;59888;55.814;37.132;2022-11-11T05:44:36;9.56;75.32
71396;DHT22;59888;55.814;37.132;2022-11-11T05:47:20;9.52;75.30
71396;DHT22;59888;55.814;37.132;2022-11-11T05:50:04;9.48;75.72
71396;DHT22;59888;55.814;37.132;2022-11-11T05:52:48;9.49;75.65
71396;DHT22;59888;55.814;37.132;2022-11-11T05:55:33;9.47;75.76
71396;DHT22;59888;55.814;37.132;2022-11-11T05:58:18;9.47;75.65
71396;DHT22;59888;55.814;37.132;2022-11-11T06:01:02;9.51;75.63
71396;DHT22;59888;55.814;37.132;2022-11-11T06:03:46;9.54;75.70
71396;DHT22;59888;55.814;37.132;2022-11-11T06:06:31;9.56;75.43
71396;DHT22;59888;55.814;37.132;2022-11-11T06:09:15;9.54;75.52
71396;DHT22;59888;55.814;37.132;2022-11-11T06:11:59;9.52;75.73
71396;DHT22;59888;55.814;37.132;2022-11-11T06:14:44;9.53;75.38
71396;DHT22;59888;55.814;37.132;2022-11-11T06:17:29;9.51;75.47
71396;DHT22;59888;55.814;37.132;2022-11-11T06:20:13;9.47;75.53
71396;DHT22;59888;55.814;37.132;2022-11-11T06:23:03;9.48;75.79
71396;DHT22;59888;55.814;37.132;2022-11-11T06:25:48;9.50;75.68
71396;DHT22;59888;55.814;37.132;2022-11-11T06:28:54;9.50;75.55
71396;DHT22;59888;55.814;37.132;2022-11-11T06:31:39;9.54;75.54
71396;DHT22;59888;55.814;37.132;2022-11-11T06:34:23;9.53;75.42
71396;DHT22;59888;55.814;37.132;2022-11-11T06:37:07;9.53;75.48
71396;DHT22;59888;55.814;37.132;2022-11-11T06:39:51;9.52;75.53
71396;DHT22;59888;55.814;37.132;2022-11-11T06:42:36;9.53;75.50
71396;DHT22;59888;55.814;37.132;2022-11-11T06:45:23;9.51;75.77
71396;DHT22;59888;55.814;37.132;2022-11-11T06:48:08;9.52;75.71
71396;DHT22;59888;55.814;37.132;2022-11-11T06:50:52;9.54;75.59
71396;DHT22;59888;55.814;37.132;2022-11-11T06:53:36;9.55;75.62
71396;DHT22;59888;55.814;37.132;2022-11-11T06:56:20;9.56;75.71
71396;DHT22;59888;55.814;37.132;2022-11-11T06:59:05;9.53;75.97
71396;DHT22;59888;55.814;37.132;2022-11-11T07:01:49;9.52;75.86
71396;DHT22;59888;55.814;37.132;2022-11-11T07:04:33;9.57;75.63
71396;DHT22;59888;55.814;37.132;2022-11-11T07:07:18;9.59;75.76
71396;DHT22;59888;55.814;37.132;2022-11-11T07:10:02;9.55;75.93
71396;DHT22;59888;55.814;37.132;2022-11-11T07:12:50;9.56;75.53
71396;DHT22;59888;55.814;37.132;2022-11-11T07:15:34;9.61;75.56
71396;DHT22;59888;55.814;37.132;2022-11-11T07:18:19;9.63;75.67
71396;DHT22;59888;55.814;37.132;2022-11-11T07:21:03;9.62;75.47
71396;DHT22;59888;55.814;37.132;2022-11-11T07:23:47;9.63;75.57
71396;DHT22;59888;55.814;37.132;2022-11-11T07:26:31;9.63;75.51
71396;DHT22;59888;55.814;37.132;2022-11-11T07:29:15;9.62;75.70
71396;DHT22;59888;55.814;37.132;2022-11-11T07:32:00;9.64;75.54
71396;DHT22;59888;55.814;37.132;2022-11-11T07:34:44;9.66;75.52
71396;DHT22;59888;55.814;37.132;2022-11-11T07:37:30;9.69;75.38
71396;DHT22;59888;55.814;37.132;2022-11-11T07:40:15;9.70;75.23
71396;DHT22;59888;55.814;37.132;2022-11-11T07:42:59;9.64;75.92
71396;DHT22;59888;55.814;37.132;2022-11-11T07:45:44;9.67;75.68
71396;DHT22;59888;55.814;37.132;2022-11-11T07:48:28;9.71;75.33
71396;DHT22;59888;55.814;37.132;2022-11-11T07:51:12;9.71;75.44
71396;DHT22;59888;55.814;37.132;2022-11-11T07:53:57;9.72;75.57
71396;DHT22;59888;55.814;37.132;2022-11-11T07:56:41;9.77;75.39
71396;DHT22;59888;55.814;37.132;2022-11-11T07:59:25;9.79;75.38
71396;DHT22;59888;55.814;37.132;2022-11-11T08:02:10;9.82;75.36
71396;DHT22;59888;55.814;37.132;2022-11-11T08:04:54;9.86;75.29
71396;DHT22;59888;55.814;37.132;2022-11-11T08:07:38;9.93;75.00
71396;DHT22;59888;55.814;37.132;2022-11-11T08:10:23;9.97;74.94
71396;DHT22;59888;55.814;37.132;2022-11-11T08:13:08;9.97;74.86
71396;DHT22;59888;55.814;37.132;2022-11-11T08:16:12;10.04;74.92
71396;DHT22;59888;55.814;37.132;2022-11-11T08:18:57;10.13;74.76
71396;DHT22;59888;55.814;37.132;2022-11-11T08:21:42;10.14;74.59
71396;DHT22;59888;55.814;37.132;2022-11-11T08:24:26;10.16;74.51
71396;DHT22;59888;55.814;37.132;2022-11-11T08:27:10;10.20;74.44
71396;DHT22;59888;55.814;37.132;2022-11-11T08:29:54;10.19;74.38
71396;DHT22;59888;55.814;37.132;2022-11-11T08:32:39;10.18;74.42
71396;DHT22;59888;55.814;37.132;2022-11-11T08:35:23;10.20;74.24
71396;DHT22;59888;55.814;37.132;2022-11-11T08:38:10;10.23;74.32
71396;DHT22;59888;55.814;37.132;2022-11-11T08:40:59;10.27;74.23
71396;DHT22;59888;55.814;37.132;2022-11-11T08:43:44;10.34;74.09
71396;DHT22;59888;55.814;37.132;2022-11-11T08:46:28;10.34;73.89
71396;DHT22;59888;55.814;37.132;2022-11-11T08:49:12;10.28;73.94
71396;DHT22;59888;55.814;37.132;2022-11-11T08:51:57;10.28;74.05
71396;DHT22;59888;55.814;37.132;2022-11-11T08:54:41;10.29;73.96
71396;DHT22;59888;55.814;37.132;2022-11-11T08:57:25;10.27;73.92
71396;DHT22;59888;55.814;37.132;2022-11-11T09:00:10;10.27;73.86
71396;DHT22;59888;55.814;37.132;2022-11-11T09:02:59;10.26;73.93
71396;DHT22;59888;55.814;37.132;2022-11-11T09:05:44;10.23;73.80
71396;DHT22;59888;55.814;37.132;2022-11-11T09:08:30;10.20;73.98
71396;DHT22;59888;55.814;37.132;2022-11-11T09:11:14;10.18;74.02
71396;DHT22;59888;55.814;37.132;2022-11-11T09:13:59;10.20;73.95
71396;DHT22;59888;55.814;37.132;2022-11-11T09:16:43;10.19;74.03
71396;DHT22;59888;55.814;37.132;2022-11-11T09:19:27;10.15;73.86
71396;DHT22;59888;55.814;37.132;2022-11-11T09:22:11;10.15;74.04
71396;DHT22;59888;55.814;37.132;2022-11-11T09:24:55;10.20;73.96
71396;DHT22;59888;55.814;37.132;2022-11-11T09:27:40;10.23;73.93
71396;DHT22;59888;55.814;37.132;2022-11-11T09:30:24;10.24;73.93
71396;DHT22;59888;55.814;37.132;2022-11-11T09:33:13;10.22;73.88
71396;DHT22;59888;55.814;37.132;2022-11-11T09:35:59;10.22;73.94
71396;DHT22;59888;55.814;37.132;2022-11-11T09:38:44;10.23;73.90
71396;DHT22;59888;55.814;37.132;2022-11-11T09:50:47;10.19;74.04
71396;DHT22;59888;55.814;37.132;2022-11-11T09:53:43;10.10;74.29
71396;DHT22;59888;55.814;37.132;2022-11-11T09:56:31;10.13;74.31
71396;DHT22;59888;55.814;37.132;2022-11-11T09:59:18;10.10;74.46
71396;DHT22;59888;55.814;37.132;2022-11-11T10:02:03;10.16;74.22
71396;DHT22;59888;55.814;37.132;2022-11-11T10:05:08;10.15;74.47
71396;DHT22;59888;55.814;37.132;2022-11-11T10:08:09;10.18;74.33
71396;DHT22;59888;55.814;37.132;2022-11-11T10:10:59;10.20;74.20
71396;DHT22;59888;55.814;37.132;2022-11-11T10:13:43;10.20;74.35
71396;DHT22;59888;55.814;37.132;2022-11-11T10:22:35;10.21;74.28
71396;DHT22;59888;55.814;37.132;2022-11-11T10:25:21;10.22;74.31
71396;DHT22;59888;55.814;37.132;2022-11-11T10:28:07;10.22;74.45
71396;DHT22;59888;55.814;37.132;2022-11-11T10:30:52;10.19;74.53
71396;DHT22;59888;55.814;37.132;2022-11-11T10:33:41;10.24;74.44
71396;DHT22;59888;55.814;37.132;2022-11-11T10:36:29;10.23;74.46
71396;DHT22;59888;55.814;37.132;2022-11-11T10:39:14;10.21;74.72
71396;DHT22;59888;55.814;37.132;2022-11-11T10:42:00;10.23;74.63
71396;DHT22;59888;55.814;37.132;2022-11-11T10:44:45;10.26;74.55
71396;DHT22;59888;55.814;37.132;2022-11-11T10:47:43;10.21;74.63
71396;DHT22;59888;55.814;37.132;2022-11-11T10:50:38;10.27;74.59
71396;DHT22;59888;55.814;37.132;2022-11-11T10:59:25;10.33;74.44
71396;DHT22;59888;55.814;37.132;2022-11-11T11:02:23;10.34;74.57
71396;DHT22;59888;55.814;37.132;2022-11-11T11:05:12;10.33;74.60
71396;DHT22;59888;55.814;37.132;2022-11-11T11:08:00;10.30;74.61
71396;DHT22;59888;55.814;37.132;2022-11-11T11:10:52;10.29;74.64
71396;DHT22;59888;55.814;37.132;2022-11-11T11:13:54;10.28;74.88
71396;DHT22;59888;55.814;37.132;2022-11-11T11:16:39;10.28;74.98
71396;DHT22;59888;55.814;37.132;2022-11-11T11:19:28;10.30;74.87
71396;DHT22;59888;55.814;37.132;2022-11-11T11:22:15;10.33;74.79
71396;DHT22;59888;55.814;37.132;2022-11-11T11:25:10;10.35;74.83
71396;DHT22;59888;55.814;37.132;2022-11-11T11:28:04;10.29;75.17
71396;DHT22;59888;55.814;37.132;2022-11-11T11:30:59;10.31;75.07
71396;DHT22;59888;55.814;37.132;2022-11-11T11:36:38;10.36;75.06
71396;DHT22;59888;55.814;37.132;2022-11-11T11:39:32;10.29;75.05
71396;DHT22;59888;55.814;37.132;2022-11-11T11:42:27;10.26;75.33
71396;DHT22;59888;55.814;37.132;2022-11-11T11:45:28;10.20;75.59
71396;DHT22;59888;55.814;37.132;2022-11-11T11:51:01;10.26;75.38
71396;DHT22;59888;55.814;37.132;2022-11-11T11:56:58;10.27;75.25
71396;DHT22;59888;55.814;37.132;2022-11-11T12:05:39;10.24;75.41
71396;DHT22;59888;55.814;37.132;2022-11-11T12:08:35;10.27;75.32
71396;DHT22;59888;55.814;37.132;2022-11-11T12:39:54;10.22;75.99
71396;DHT22;59888;55.814;37.132;2022-11-11T12:45:30;10.31;75.65
71396;DHT22;59888;55.814;37.132;2022-11-11T12:53:58;10.39;74.88
71396;DHT22;59888;55.814;37.132;2022-11-11T12:56:50;10.36;74.08
71396;DHT22;59888;55.814;37.132;2022-11-11T13:05:41;10.29;73.62
71396;DHT22;59888;55.814;37.132;2022-11-11T13:09:09;10.29;73.23
71396;DHT22;59888;55.814;37.132;2022-11-11T13:17:03;10.31;73.23
71396;DHT22;59888;55.814;37.132;2022-11-11T13:19:53;10.29;73.00
71396;DHT22;59888;55.814;37.132;2022-11-11T13:22:45;10.33;73.06
71396;DHT22;59888;55.814;37.132;2022-11-11T13:25:31;10.37;73.01
71396;DHT22;59888;55.814;37.132;2022-11-11T13:28:27;10.42;72.96
71396;DHT22;59888;55.814;37.132;2022-11-11T13:31:33;10.45;72.99
71396;DHT22;59888;55.814;37.132;2022-11-11T13:34:16;10.44;72.72
71396;DHT22;59888;55.814;37.132;2022-11-11T13:37:02;10.43;72.90
71396;DHT22;59888;55.814;37.132;2022-11-11T13:39:48;10.44;72.89
71396;DHT22;59888;55.814;37.132;2022-11-11T13:42:35;10.48;72.87
71396;DHT22;59888;55.814;37.132;2022-11-11T13:45:26;10.50;72.92
71396;DHT22;59888;55.814;37.132;2022-11-11T13:48:53;10.43;72.83
71396;DHT22;59888;55.814;37.132;2022-11-11T13:54:19;10.43;72.85
71396;DHT22;59888;55.814;37.132;2022-11-11T13:59:56;10.38;73.05
71396;DHT22;59888;55.814;37.132;2022-11-11T14:02:41;10.37;73.11
71396;DHT22;59888;55.814;37.132;2022-11-11T14:05:25;10.37;73.15
71396;DHT22;59888;55.814;37.132;2022-11-11T14:08:10;10.37;73.17
71396;DHT22;59888;55.814;37.132;2022-11-11T14:17:14;10.40;73.21
71396;DHT22;59888;55.814;37.132;2022-11-11T14:20:04;10.39;73.23
71396;DHT22;59888;55.814;37.132;2022-11-11T14:28:53;10.34;73.14
71396;DHT22;59888;55.814;37.132;2022-11-11T14:40:27;10.27;73.13
71396;DHT22;59888;55.814;37.132;2022-11-11T14:46:24;10.25;72.84
71396;DHT22;59888;55.814;37.132;2022-11-11T14:49:08;10.24;72.64
71396;DHT22;59888;55.814;37.132;2022-11-11T14:51:58;10.25;72.56
71396;DHT22;59888;55.814;37.132;2022-11-11T14:54:50;10.23;72.62
71396;DHT22;59888;55.814;37.132;2022-11-11T14:57:58;10.22;72.35
71396;DHT22;59888;55.814;37.132;2022-11-11T15:00:45;10.23;72.29
71396;DHT22;59888;55.814;37.132;2022-11-11T15:03:51;10.24;72.32
71396;DHT22;59888;55.814;37.132;2022-11-11T15:06:41;10.23;72.19
71396;DHT22;59888;55.814;37.132;2022-11-11T15:15:46;10.23;72.15
71396;DHT22;59888;55.814;37.132;2022-11-11T15:24:20;10.16;72.00
71396;DHT22;59888;55.814;37.132;2022-11-11T15:35:45;10.07;71.90
71396;DHT22;59888;55.814;37.132;2022-11-11T15:38:33;10.04;72.00
71396;DHT22;59888;55.814;37.132;2022-11-11T15:41:22;10.04;71.96
71396;DHT22;59888;55.814;37.132;2022-11-11T15:44:28;10.03;71.91
71396;DHT22;59888;55.814;37.132;2022-11-11T15:47:13;10.01;72.09
71396;DHT22;59888;55.814;37.132;2022-11-11T15:49:58;10.01;72.03
71396;DHT22;59888;55.814;37.132;2022-11-11T15:52:42;10.01;71.90
71396;DHT22;59888;55.814;37.132;2022-11-11T15:55:32;9.98;71.73
71396;DHT22;59888;55.814;37.132;2022-11-11T15:58:23;9.98;72.06
71396;DHT22;59888;55.814;37.132;2022-11-11T16:01:09;9.99;71.87
71396;DHT22;59888;55.814;37.132;2022-11-11T16:03:59;9.97;71.52
71396;DHT22;59888;55.814;37.132;2022-11-11T16:06:43;9.97;71.98
71396;DHT22;59888;55.814;37.132;2022-11-11T16:09:28;9.95;71.82
71396;DHT22;59888;55.814;37.132;2022-11-11T16:12:15;9.99;71.77
71396;DHT22;59888;55.814;37.132;2022-11-11T16:15:01;10.00;71.74
71396;DHT22;59888;55.814;37.132;2022-11-11T16:17:46;10.01;71.67
71396;DHT22;59888;55.814;37.132;2022-11-11T16:20:52;9.95;71.51
71396;DHT22;59888;55.814;37.132;2022-11-11T16:23:40;9.93;71.72
71396;DHT22;59888;55.814;37.132;2022-11-11T16:26:25;9.91;71.56
71396;DHT22;59888;55.814;37.132;2022-11-11T16:29:13;9.89;71.74
71396;DHT22;59888;55.814;37.132;2022-11-11T16:31:58;9.89;71.51
71396;DHT22;59888;55.814;37.132;2022-11-11T16:34:42;9.89;71.61
71396;DHT22;59888;55.814;37.132;2022-11-11T16:37:29;9.89;71.66
71396;DHT22;59888;55.814;37.132;2022-11-11T16:40:26;9.88;71.53
71396;DHT22;59888;55.814;37.132;2022-11-11T16:48:46;9.84;71.48
71396;DHT22;59888;55.814;37.132;2022-11-11T16:51:42;9.86;71.67
71396;DHT22;59888;55.814;37.132;2022-11-11T16:54:27;9.89;71.69
71396;DHT22;59888;55.814;37.132;2022-11-11T16:57:14;9.90;71.68
71396;DHT22;59888;55.814;37.132;2022-11-11T17:00:00;9.91;71.55
71396;DHT22;59888;55.814;37.132;2022-11-11T17:02:47;9.94;71.74
71396;DHT22;59888;55.814;37.132;2022-11-11T17:05:48;9.97;71.67
71396;DHT22;59888;55.814;37.132;2022-11-11T17:14:19;9.98;71.75
71396;DHT22;59888;55.814;37.132;2022-11-11T17:17:05;9.94;71.44
71396;DHT22;59888;55.814;37.132;2022-11-11T17:19:51;9.94;71.67
71396;DHT22;59888;55.814;37.132;2022-11-11T17:22:55;9.94;71.64
71396;DHT22;59888;55.814;37.132;2022-11-11T17:25:40;9.95;71.55
71396;DHT22;59888;55.814;37.132;2022-11-11T17:28:33;9.93;71.74
71396;DHT22;59888;55.814;37.132;2022-11-11T17:31:18;9.93;71.79
71396;DHT22;59888;55.814;37.132;2022-11-11T17:34:09;9.97;71.86
71396;DHT22;59888;55.814;37.132;2022-11-11T17:36:53;9.98;71.72
71396;DHT22;59888;55.814;37.132;2022-11-11T17:39:38;9.99;71.75
71396;DHT22;59888;55.814;37.132;2022-11-11T17:42:31;9.97;71.79
71396;DHT22;59888;55.814;37.132;2022-11-11T17:45:16;9.99;71.82
71396;DHT22;59888;55.814;37.132;2022-11-11T17:48:00;10.01;71.84
71396;DHT22;59888;55.814;37.132;2022-11-11T17:50:44;10.06;71.78
71396;DHT22;59888;55.814;37.132;2022-11-11T17:53:31;10.03;71.77
71396;DHT22;59888;55.814;37.132;2022-11-11T17:56:15;10.03;71.83
71396;DHT22;59888;55.814;37.132;2022-11-11T17:59:00;9.99;71.85
71396;DHT22;59888;55.814;37.132;2022-11-11T18:01:44;9.95;72.01
71396;DHT22;59888;55.814;37.132;2022-11-11T18:04:28;9.92;72.09
71396;DHT22;59888;55.814;37.132;2022-11-11T18:07:13;9.89;72.19
71396;DHT22;59888;55.814;37.132;2022-11-11T18:09:57;9.93;72.27
71396;DHT22;59888;55.814;37.132;2022-11-11T18:12:52;9.93;72.17
71396;DHT22;59888;55.814;37.132;2022-11-11T18:15:36;9.94;72.19
71396;DHT22;59888;55.814;37.132;2022-11-11T18:18:20;9.92;72.30
71396;DHT22;59888;55.814;37.132;2022-11-11T18:21:05;9.93;72.33
71396;DHT22;59888;55.814;37.132;2022-11-11T18:23:49;9.94;72.33
71396;DHT22;59888;55.814;37.132;2022-11-11T18:26:34;9.98;72.24
71396;DHT22;59888;55.814;37.132;2022-11-11T18:29:18;9.97;72.22
71396;DHT22;59888;55.814;37.132;2022-11-11T18:32:02;9.97;72.22
71396;DHT22;59888;55.814;37.132;2022-11-11T18:34:47;9.98;72.23
71396;DHT22;59888;55.814;37.132;2022-11-11T18:37:31;10.01;72.19
71396;DHT22;59888;55.814;37.132;2022-11-11T18:40:16;10.05;72.11
71396;DHT22;59888;55.814;37.132;2022-11-11T18:43:00;10.00;72.17
71396;DHT22;59888;55.814;37.132;2022-11-11T18:45:44;10.03;72.18
71396;DHT22;59888;55.814;37.132;2022-11-11T18:48:29;10.07;72.13
71396;DHT22;59888;55.814;37.132;2022-11-11T18:51:14;10.05;72.06
71396;DHT22;59888;55.814;37.132;2022-11-11T18:54:00;10.04;72.22
71396;DHT22;59888;55.814;37.132;2022-11-11T18:56:44;10.08;72.09
71396;DHT22;59888;55.814;37.132;2022-11-11T18:59:28;10.11;72.03
71396;DHT22;59888;55.814;37.132;2022-11-11T19:02:12;10.13;71.96
71396;DHT22;59888;55.814;37.132;2022-11-11T19:04:57;10.10;72.06
71396;DHT22;59888;55.814;37.132;2022-11-11T19:07:41;10.08;72.09
71396;DHT22;59888;55.814;37.132;2022-11-11T19:10:26;10.11;72.09
71396;DHT22;59888;55.814;37.132;2022-11-11T19:13:10;10.11;72.02
71396;DHT22;59888;55.814;37.132;2022-11-11T19:15:55;10.10;72.05
71396;DHT22;59888;55.814;37.132;2022-11-11T19:18:39;10.05;72.22
71396;DHT22;59888;55.814;37.132;2022-11-11T19:21:24;10.03;72.26
71396;DHT22;59888;55.814;37.132;2022-11-11T19:24:09;10.04;72.30
71396;DHT22;59888;55.814;37.132;2022-11-11T19:26:54;10.03;72.38
71396;DHT22;59888;55.814;37.132;2022-11-11T19:29:38;10.05;72.25
71396;DHT22;59888;55.814;37.132;2022-11-11T19:32:28;10.03;72.35
71396;DHT22;59888;55.814;37.132;2022-11-11T19:35:12;10.10;72.25
71396;DHT22;59888;55.814;37.132;2022-11-11T19:37:57;10.04;72.27
71396;DHT22;59888;55.814;37.132;2022-11-11T19:40:41;10.04;72.38
71396;DHT22;59888;55.814;37.132;2022-11-11T19:43:26;10.01;72.46
71396;DHT22;59888;55.814;37.132;2022-11-11T19:46:11;10.01;72.51
71396;DHT22;59888;55.814;37.132;2022-11-11T19:48:57;10.07;72.42
71396;DHT22;59888;55.814;37.132;2022-11-11T19:51:42;10.04;72.35
71396;DHT22;59888;55.814;37.132;2022-11-11T19:54:27;10.06;72.35
71396;DHT22;59888;55.814;37.132;2022-11-11T19:57:11;10.05;72.42
71396;DHT22;59888;55.814;37.132;2022-11-11T19:59:55;10.03;72.40
71396;DHT22;59888;55.814;37.132;2022-11-11T20:02:40;10.03;72.61
71396;DHT22;59888;55.814;37.132;2022-11-11T20:05:24;10.03;72.61
71396;DHT22;59888;55.814;37.132;2022-11-11T20:08:08;10.03;72.71